Time;durP1;ratioP1;P1;durP2;ratioP2;P2;SDS_P1;SDS_P2;PMS_P1;PMS_P2;Temp;Humidity;BMP_temperature;BMP_pressure;BME280_temperature;BME280_humidity;BME280_pressure;Samples;Min_cycle;Max_cycle;Signal;HPM_P1;HPM_P2
2022/07/29 00:01:16;;;;;;;6.70;6.10;;;25.80;78.40;;;;;;5020907;28;20295;-76
2022/07/29 00:03:42;;;;;;;6.80;6.20;;;25.80;79.40;;;;;;5014286;28;20224;-76
2022/07/29 00:06:08;;;;;;;6.17;5.60;;;25.70;78.80;;;;;;5020292;28;20541;-76
2022/07/29 00:08:33;;;;;;;8.47;5.97;;;25.70;78.90;;;;;;5021102;28;20184;-76
2022/07/29 00:10:59;;;;;;;7.10;6.40;;;25.70;79.20;;;;;;5019075;28;20223;-76
2022/07/29 00:13:24;;;;;;;6.17;5.77;;;25.60;79.90;;;;;;5017874;28;20192;-76
2022/07/29 00:15:50;;;;;;;6.37;5.83;;;25.60;79.90;;;;;;5018323;28;20258;-75
2022/07/29 00:18:16;;;;;;;7.20;6.50;;;25.60;80.20;;;;;;5020291;28;20253;-76
2022/07/29 00:20:41;;;;;;;6.70;6.00;;;25.60;80.30;;;;;;5019641;28;20291;-77
2022/07/29 00:23:07;;;;;;;6.33;5.73;;;25.50;80.80;;;;;;5023139;28;20165;-77
2022/07/29 00:25:33;;;;;;;8.03;6.47;;;25.60;81.30;;;;;;5021232;28;20219;-76
2022/07/29 00:27:58;;;;;;;6.20;5.70;;;25.50;81.40;;;;;;5023364;28;20231;-77
2022/07/29 00:30:24;;;;;;;6.60;5.97;;;25.50;81.50;;;;;;5022105;28;20207;-77
2022/07/29 00:32:50;;;;;;;6.17;5.57;;;25.50;81.70;;;;;;5021388;28;20211;-77
2022/07/29 00:37:59;;;;;;;5.90;5.40;;;25.50;82.10;;;;;;5024604;28;20601;-77
2022/07/29 00:40:25;;;;;;;6.27;5.63;;;25.50;83.20;;;;;;5019383;28;20431;-77
2022/07/29 00:42:52;;;;;;;5.40;5.00;;;25.50;82.40;;;;;;5017179;28;20184;-77
2022/07/29 00:45:19;;;;;;;7.20;6.10;;;25.50;82.60;;;;;;5020981;28;20172;-77
2022/07/29 00:47:44;;;;;;;7.20;5.70;;;25.40;82.90;;;;;;5019041;28;20440;-77
2022/07/29 00:50:12;;;;;;;6.30;5.67;;;25.40;83.00;;;;;;5025279;28;20445;-77
2022/07/29 00:52:39;;;;;;;6.50;5.80;;;25.40;83.00;;;;;;5026587;28;20777;-77
2022/07/29 00:55:08;;;;;;;6.50;6.00;;;25.40;83.10;;;;;;5015102;28;20446;-76
2022/07/29 00:57:34;;;;;;;6.30;5.80;;;25.30;83.60;;;;;;5022219;28;20493;-76
2022/07/29 01:00:00;;;;;;;6.37;5.87;;;25.30;83.70;;;;;;5022733;28;20514;-77
2022/07/29 01:02:25;;;;;;;6.13;5.60;;;25.30;83.80;;;;;;5016918;28;20584;-76
2022/07/29 01:04:51;;;;;;;6.13;5.63;;;25.30;84.20;;;;;;5018769;28;20212;-77
2022/07/29 01:07:18;;;;;;;6.20;5.60;;;25.30;84.50;;;;;;5019033;28;20211;-77
2022/07/29 01:09:45;;;;;;;6.30;5.70;;;25.30;84.80;;;;;;5018729;28;20435;-77
2022/07/29 01:12:14;;;;;;;8.37;6.20;;;25.20;84.90;;;;;;5021346;28;20438;-77
2022/07/29 01:14:41;;;;;;;5.80;5.30;;;25.20;85.60;;;;;;5020471;28;20554;-77
2022/07/29 01:17:31;;;;;;;6.00;5.40;;;25.20;85.50;;;;;;5018560;28;20482;-77
2022/07/29 01:20:01;;;;;;;6.23;5.63;;;25.20;85.70;;;;;;5021179;28;20487;-78
2022/07/29 01:22:45;;;;;;;6.43;5.93;;;25.20;86.00;;;;;;5023412;28;20427;-77
2022/07/29 01:25:16;;;;;;;5.60;5.03;;;25.20;86.40;;;;;;5018338;28;20974;-77
2022/07/29 01:28:00;;;;;;;6.43;5.67;;;25.10;86.40;;;;;;5023046;28;20947;-76
2022/07/29 01:30:28;;;;;;;6.97;5.53;;;25.10;86.80;;;;;;5024957;28;20457;-76
2022/07/29 01:33:01;;;;;;;8.50;6.00;;;25.10;87.40;;;;;;5026769;28;20426;-77
2022/07/29 01:35:35;;;;;;;6.67;6.07;;;25.00;87.70;;;;;;5017276;28;20488;-77
2022/07/29 01:38:15;;;;;;;6.27;5.77;;;25.00;88.10;;;;;;5023590;28;20554;-77
2022/07/29 01:40:52;;;;;;;6.60;6.00;;;25.00;88.40;;;;;;5029163;28;20427;-76
2022/07/29 01:43:28;;;;;;;7.40;5.60;;;25.00;88.80;;;;;;5023825;28;20846;-77
2022/07/29 01:46:00;;;;;;;6.13;5.57;;;25.00;88.80;;;;;;5023925;28;20556;-77
2022/07/29 01:48:39;;;;;;;7.43;6.73;;;25.00;88.90;;;;;;5032240;28;20467;-77
2022/07/29 01:51:12;;;;;;;6.10;5.50;;;25.00;89.20;;;;;;5021339;28;20504;-78
2022/07/29 01:54:10;;;;;;;7.57;6.63;;;25.00;89.60;;;;;;5022393;28;20443;-77
2022/07/29 01:56:37;;;;;;;7.50;6.30;;;24.90;90.00;;;;;;5022716;28;20528;-77
2022/07/29 01:59:06;;;;;;;6.60;5.90;;;24.90;90.10;;;;;;5030107;28;20500;-77
2022/07/29 02:01:34;;;;;;;7.00;6.13;;;24.90;90.10;;;;;;5030827;28;20495;-77
2022/07/29 02:04:04;;;;;;;5.97;5.47;;;24.90;90.30;;;;;;5026280;28;20817;-76
2022/07/29 02:06:32;;;;;;;6.70;6.10;;;24.90;90.40;;;;;;5025089;28;20554;-77
2022/07/29 02:08:59;;;;;;;5.50;5.10;;;24.90;90.60;;;;;;5022269;28;20529;-77
2022/07/29 02:11:25;;;;;;;6.30;5.70;;;24.80;90.80;;;;;;5019952;28;20453;-77
2022/07/29 02:13:55;;;;;;;6.43;5.83;;;24.70;90.90;;;;;;5026625;28;20843;-77
2022/07/29 02:16:22;;;;;;;7.53;6.67;;;24.70;91.10;;;;;;5018160;28;20501;-77
2022/07/29 02:18:51;;;;;;;6.20;5.60;;;24.60;91.20;;;;;;5026992;28;20463;-76
2022/07/29 02:21:23;;;;;;;6.77;5.67;;;24.60;91.40;;;;;;5021887;28;20477;-78
2022/07/29 02:23:52;;;;;;;8.07;7.30;;;24.60;91.60;;;;;;5027954;28;20478;-76
2022/07/29 02:26:20;;;;;;;6.60;6.03;;;24.50;91.70;;;;;;5025580;28;21127;-78
2022/07/29 02:28:49;;;;;;;6.90;6.30;;;24.50;91.90;;;;;;5022209;28;21477;-77
2022/07/29 02:31:17;;;;;;;6.43;5.83;;;24.40;92.20;;;;;;5019790;28;20446;-77
2022/07/29 02:33:43;;;;;;;6.73;6.03;;;24.40;92.30;;;;;;5023725;28;21138;-77
2022/07/29 02:36:10;;;;;;;6.43;5.90;;;24.40;92.50;;;;;;5025592;28;20550;-77
2022/07/29 02:38:51;;;;;;;6.50;5.90;;;24.40;92.70;;;;;;5027035;28;20553;-77
2022/07/29 02:41:48;;;;;;;6.77;6.27;;;24.30;92.90;;;;;;5025838;28;20449;-76
2022/07/29 02:44:21;;;;;;;7.10;6.60;;;24.30;93.30;;;;;;5019661;28;20454;-78
2022/07/29 02:46:51;;;;;;;6.20;5.60;;;24.30;93.50;;;;;;5023623;28;20451;-77
2022/07/29 02:49:30;;;;;;;6.93;6.43;;;24.30;93.60;;;;;;5020707;28;20443;-77
2022/07/29 02:52:04;;;;;;;6.70;6.10;;;24.20;93.80;;;;;;5022733;28;21054;-77
2022/07/29 02:54:52;;;;;;;8.43;5.90;;;24.20;93.90;;;;;;5022295;28;20536;-76
2022/07/29 02:57:22;;;;;;;6.40;5.90;;;24.20;94.10;;;;;;5024006;28;20470;-77
2022/07/29 02:59:52;;;;;;;10.40;6.10;;;24.10;94.20;;;;;;5024399;28;20423;-76
2022/07/29 03:02:19;;;;;;;7.00;6.40;;;24.10;94.40;;;;;;5024021;28;20439;-77
2022/07/29 03:04:46;;;;;;;6.57;6.07;;;24.10;94.60;;;;;;5025236;28;20447;-77
2022/07/29 03:07:15;;;;;;;6.93;6.00;;;24.10;94.80;;;;;;5024126;28;20797;-77
2022/07/29 03:09:47;;;;;;;6.53;5.90;;;24.10;95.10;;;;;;5027561;28;20420;-77
2022/07/29 03:12:14;;;;;;;6.30;5.70;;;24.10;95.30;;;;;;5026495;28;20431;-77
2022/07/29 03:14:40;;;;;;;7.30;6.60;;;24.10;95.40;;;;;;5024723;28;20440;-77
2022/07/29 03:17:07;;;;;;;6.83;6.23;;;24.10;95.50;;;;;;5027313;28;20466;-77
2022/07/29 03:19:34;;;;;;;7.20;6.53;;;24.00;95.60;;;;;;5020406;28;20440;-76
2022/07/29 03:21:59;;;;;;;6.83;6.20;;;24.00;95.80;;;;;;5025899;28;20975;-77
2022/07/29 03:24:36;;;;;;;7.53;6.60;;;24.00;96.10;;;;;;5023224;28;20450;-77
2022/07/29 03:27:03;;;;;;;9.33;6.70;;;24.00;96.30;;;;;;5028112;28;20204;-77
2022/07/29 03:29:29;;;;;;;7.57;6.87;;;24.00;96.50;;;;;;5023286;28;20443;-76
2022/07/29 03:31:55;;;;;;;6.93;6.33;;;23.90;96.60;;;;;;5026904;28;20443;-77
2022/07/29 03:34:22;;;;;;;8.80;7.80;;;23.90;96.70;;;;;;5027737;28;20937;-76
2022/07/29 03:36:48;;;;;;;7.37;6.67;;;23.90;96.90;;;;;;5027846;28;20477;-78
2022/07/29 03:39:17;;;;;;;6.27;5.80;;;23.90;97.00;;;;;;5026542;28;21149;-77
2022/07/29 03:41:45;;;;;;;8.33;6.47;;;23.90;97.20;;;;;;5028610;28;20463;-77
2022/07/29 03:44:12;;;;;;;7.30;6.60;;;23.90;97.30;;;;;;5029998;28;20967;-77
2022/07/29 03:46:39;;;;;;;6.57;6.07;;;23.80;97.40;;;;;;5026747;28;20436;-78
2022/07/29 03:49:08;;;;;;;7.33;6.20;;;23.80;97.50;;;;;;5026951;28;20442;-76
2022/07/29 03:51:34;;;;;;;7.30;6.20;;;23.80;97.60;;;;;;5035327;28;20506;-77
2022/07/29 03:54:04;;;;;;;8.10;6.83;;;23.80;97.80;;;;;;5031615;28;20498;-77
2022/07/29 03:56:32;;;;;;;7.00;6.40;;;23.70;98.00;;;;;;5031508;28;20545;-77
2022/07/29 03:58:58;;;;;;;10.67;7.10;;;23.60;98.40;;;;;;5028966;28;20459;-76
2022/07/29 04:01:25;;;;;;;9.20;6.93;;;23.70;98.60;;;;;;5032782;28;20388;-76
2022/07/29 04:03:51;;;;;;;7.40;6.37;;;23.70;98.60;;;;;;5043923;28;20435;-76
2022/07/29 04:06:17;;;;;;;6.80;6.20;;;23.70;98.70;;;;;;5019633;28;20435;-77
2022/07/29 04:08:42;;;;;;;7.10;6.50;;;23.70;98.80;;;;;;5028941;28;20177;-77
2022/07/29 04:11:08;;;;;;;7.03;6.33;;;23.70;98.90;;;;;;5021371;28;20184;-76
2022/07/29 04:13:33;;;;;;;7.17;6.43;;;23.70;98.90;;;;;;5029002;28;20243;-77
2022/07/29 04:15:59;;;;;;;7.30;6.50;;;23.70;99.00;;;;;;5026434;28;20240;-77
2022/07/29 04:18:25;;;;;;;7.33;6.63;;;23.70;99.10;;;;;;5030358;28;20254;-77
2022/07/29 04:20:51;;;;;;;6.80;6.20;;;23.70;99.50;;;;;;5026140;28;20173;-78
2022/07/29 04:23:16;;;;;;;6.90;6.30;;;23.70;99.50;;;;;;5021009;28;20188;-76
2022/07/29 04:25:43;;;;;;;6.60;6.00;;;23.70;99.50;;;;;;5025928;28;20516;-78
2022/07/29 04:28:09;;;;;;;7.13;6.50;;;23.70;99.60;;;;;;5027919;28;20209;-77
2022/07/29 04:30:36;;;;;;;8.93;6.67;;;23.70;99.50;;;;;;5025463;28;20530;-77
2022/07/29 04:33:05;;;;;;;10.00;7.43;;;23.60;99.90;;;;;;5021490;28;20879;-77
2022/07/29 04:35:33;;;;;;;8.63;7.10;;;23.70;99.90;;;;;;5027930;28;20450;-77
2022/07/29 04:37:58;;;;;;;7.50;6.70;;;23.60;99.90;;;;;;5029520;28;20474;-78
2022/07/29 04:40:24;;;;;;;8.40;7.60;;;23.50;99.90;;;;;;5025578;28;20493;-77
2022/07/29 04:42:50;;;;;;;8.30;7.60;;;23.30;99.90;;;;;;5025648;28;20274;-77
2022/07/29 04:45:15;;;;;;;8.67;7.37;;;23.30;99.90;;;;;;5024050;28;20207;-78
2022/07/29 04:47:41;;;;;;;10.27;8.93;;;23.30;99.90;;;;;;5020325;28;20222;-78
2022/07/29 04:50:08;;;;;;;9.47;8.43;;;23.30;99.90;;;;;;5026439;28;20184;-77
2022/07/29 04:52:34;;;;;;;8.87;8.07;;;23.30;99.90;;;;;;5024355;28;20184;-77
2022/07/29 04:55:00;;;;;;;9.30;8.50;;;23.20;99.90;;;;;;5027371;28;20431;-77
2022/07/29 04:57:26;;;;;;;10.43;7.70;;;23.10;99.90;;;;;;5026701;28;20462;-75
2022/07/29 04:59:52;;;;;;;9.23;8.43;;;23.00;99.90;;;;;;5025724;28;20443;-76
2022/07/29 05:02:18;;;;;;;9.87;8.00;;;23.00;99.90;;;;;;5022667;28;20215;-74
2022/07/29 05:04:43;;;;;;;9.13;8.17;;;22.90;99.90;;;;;;5029542;28;20774;-75
2022/07/29 05:07:09;;;;;;;8.37;7.53;;;22.70;99.90;;;;;;5025551;28;20269;-75
2022/07/29 05:09:35;;;;;;;9.40;7.80;;;22.60;99.90;;;;;;5021508;28;20669;-73
2022/07/29 05:12:00;;;;;;;9.63;8.20;;;22.60;99.90;;;;;;5029249;28;20262;-75
2022/07/29 05:14:26;;;;;;;13.30;7.50;;;22.60;99.90;;;;;;5031600;28;20208;-76
2022/07/29 05:16:52;;;;;;;9.80;8.90;;;22.60;99.90;;;;;;5029859;28;20765;-75
2022/07/29 05:19:18;;;;;;;9.70;8.40;;;22.60;99.90;;;;;;5032219;28;20202;-76
2022/07/29 05:21:47;;;;;;;9.27;7.40;;;22.60;99.90;;;;;;5027572;28;20470;-75
2022/07/29 05:24:13;;;;;;;10.67;9.50;;;22.60;99.90;;;;;;5029876;28;20176;-75
2022/07/29 05:26:39;;;;;;;7.67;7.07;;;22.60;99.90;;;;;;5025775;28;20854;-76
2022/07/29 05:29:05;;;;;;;9.70;8.20;;;22.60;99.90;;;;;;5028604;28;20208;-76
2022/07/29 05:31:30;;;;;;;8.90;8.10;;;22.60;99.90;;;;;;5028690;28;20534;-75
2022/07/29 05:33:56;;;;;;;9.67;8.60;;;22.60;99.90;;;;;;5031680;28;20191;-76
2022/07/29 05:36:22;;;;;;;8.50;7.70;;;22.60;99.90;;;;;;5029990;28;20705;-75
2022/07/29 05:38:47;;;;;;;11.97;7.73;;;22.60;99.90;;;;;;5030619;28;20786;-75
2022/07/29 05:41:13;;;;;;;9.07;8.27;;;22.60;99.90;;;;;;5027021;28;20203;-76
2022/07/29 05:43:39;;;;;;;8.57;7.77;;;22.60;99.90;;;;;;5019074;28;20753;-74
2022/07/29 05:46:04;;;;;;;8.13;7.37;;;22.70;99.90;;;;;;5030631;28;20570;-74
2022/07/29 05:48:30;;;;;;;8.80;8.00;;;22.70;99.90;;;;;;5027304;28;20195;-75
2022/07/29 05:50:55;;;;;;;8.07;7.37;;;22.60;99.90;;;;;;5030889;28;20222;-75
2022/07/29 05:53:22;;;;;;;10.20;8.20;;;22.60;99.90;;;;;;5026510;28;20184;-75
2022/07/29 05:55:48;;;;;;;13.03;8.80;;;22.50;99.90;;;;;;5026770;28;20204;-75
2022/07/29 05:58:14;;;;;;;9.50;8.40;;;22.50;99.90;;;;;;5026165;28;20457;-74
2022/07/29 06:00:40;;;;;;;8.90;8.20;;;22.50;99.90;;;;;;5031102;28;20431;-75
2022/07/29 06:03:05;;;;;;;8.50;7.67;;;22.50;99.90;;;;;;5026453;28;20188;-75
2022/07/29 06:05:31;;;;;;;12.00;7.60;;;22.60;99.90;;;;;;5025236;28;20211;-75
2022/07/29 06:07:57;;;;;;;9.73;7.50;;;22.60;99.90;;;;;;5031996;28;20268;-75
2022/07/29 06:10:22;;;;;;;8.57;7.63;;;22.70;99.90;;;;;;5032938;28;20836;-74
2022/07/29 06:12:48;;;;;;;8.93;7.37;;;22.60;99.90;;;;;;5031970;28;20215;-75
2022/07/29 06:15:14;;;;;;;7.90;7.20;;;22.70;99.90;;;;;;5033378;28;20753;-75
2022/07/29 06:17:40;;;;;;;9.33;8.23;;;22.70;99.90;;;;;;5030152;28;20308;-75
2022/07/29 06:20:06;;;;;;;7.70;7.00;;;22.70;99.90;;;;;;5030488;28;21045;-74
2022/07/29 06:22:31;;;;;;;10.57;8.07;;;22.70;99.90;;;;;;5030408;28;20192;-75
2022/07/29 06:24:57;;;;;;;8.10;7.40;;;22.80;99.90;;;;;;5030032;28;20443;-75
2022/07/29 06:27:23;;;;;;;11.30;8.30;;;22.90;99.90;;;;;;5029616;28;20208;-75
2022/07/29 06:29:48;;;;;;;8.63;7.93;;;22.90;99.90;;;;;;5027735;28;20200;-75
2022/07/29 06:32:14;;;;;;;8.77;7.90;;;22.90;99.90;;;;;;5028836;28;20238;-75
2022/07/29 06:34:39;;;;;;;12.07;8.10;;;23.00;99.90;;;;;;5026916;28;20196;-74
2022/07/29 06:37:07;;;;;;;9.13;7.63;;;22.90;99.90;;;;;;5021824;28;20303;-75
2022/07/29 06:39:35;;;;;;;12.53;8.03;;;22.90;99.90;;;;;;5026004;28;20184;-75
2022/07/29 06:42:00;;;;;;;8.20;7.40;;;22.90;99.90;;;;;;5016329;28;20510;-75
2022/07/29 06:44:26;;;;;;;9.67;8.10;;;23.00;99.90;;;;;;5027867;28;21142;-74
2022/07/29 06:46:52;;;;;;;7.93;7.13;;;23.10;99.90;;;;;;5022704;28;20236;-74
2022/07/29 06:49:18;;;;;;;8.30;7.10;;;23.20;99.90;;;;;;5030303;28;20694;-75
2022/07/29 06:51:44;;;;;;;7.30;6.60;;;23.20;99.90;;;;;;5022904;28;20505;-74
2022/07/29 06:54:09;;;;;;;7.57;6.97;;;23.30;99.90;;;;;;5024782;28;20192;-75
2022/07/29 06:56:37;;;;;;;10.83;7.00;;;23.30;99.90;;;;;;5028283;28;20307;-75
2022/07/29 06:59:03;;;;;;;7.70;6.90;;;23.30;99.90;;;;;;5026486;28;20230;-75
2022/07/29 07:01:29;;;;;;;8.43;7.13;;;23.30;99.90;;;;;;5025611;28;20469;-74
2022/07/29 07:03:54;;;;;;;7.80;7.00;;;23.40;99.90;;;;;;5025689;28;20447;-75
2022/07/29 07:06:20;;;;;;;8.00;7.37;;;23.40;99.90;;;;;;5024773;28;20206;-75
2022/07/29 07:08:45;;;;;;;6.83;6.23;;;23.30;99.90;;;;;;5016544;28;20193;-74
2022/07/29 07:11:11;;;;;;;7.73;7.07;;;23.40;99.90;;;;;;5017532;28;20180;-74
2022/07/29 07:13:37;;;;;;;8.47;6.50;;;23.50;99.90;;;;;;5021976;28;20217;-75
2022/07/29 07:16:03;;;;;;;7.37;6.67;;;23.50;99.90;;;;;;5026292;28;20200;-74
2022/07/29 07:18:29;;;;;;;12.97;6.83;;;23.50;99.90;;;;;;5025832;28;20204;-75
2022/07/29 07:20:56;;;;;;;7.63;6.80;;;23.60;99.90;;;;;;5025674;28;20429;-75
2022/07/29 07:23:22;;;;;;;9.83;7.30;;;23.60;99.90;;;;;;5025454;28;20184;-75
2022/07/29 07:25:47;;;;;;;9.17;6.87;;;23.60;99.90;;;;;;5023425;28;20462;-75
2022/07/29 07:28:13;;;;;;;7.90;6.30;;;23.70;99.90;;;;;;5014376;28;20192;-75
2022/07/29 07:30:39;;;;;;;6.50;6.00;;;23.90;99.90;;;;;;5021788;28;20580;-74
2022/07/29 07:33:05;;;;;;;8.50;6.33;;;24.00;99.90;;;;;;5024720;28;20188;-75
2022/07/29 07:35:31;;;;;;;7.73;6.10;;;23.90;99.80;;;;;;5026700;28;21507;-75
2022/07/29 07:37:57;;;;;;;7.80;6.70;;;23.90;99.50;;;;;;5024158;28;20212;-75
2022/07/29 07:40:24;;;;;;;11.00;6.67;;;24.00;99.50;;;;;;5023757;28;20231;-75
2022/07/29 07:42:50;;;;;;;9.87;7.37;;;24.00;99.10;;;;;;5023324;28;20446;-75
2022/07/29 07:45:15;;;;;;;7.80;7.20;;;24.10;98.50;;;;;;5025147;28;20443;-74
2022/07/29 07:47:41;;;;;;;7.67;6.97;;;24.20;98.60;;;;;;5026537;28;20180;-75
2022/07/29 07:50:10;;;;;;;6.60;6.00;;;24.20;97.80;;;;;;5025476;28;20203;-75
2022/07/29 07:52:46;;;;;;;7.90;7.10;;;24.20;97.80;;;;;;5030983;28;20211;-75
2022/07/29 07:55:12;;;;;;;6.53;5.87;;;24.30;97.90;;;;;;5029360;28;20419;-75
2022/07/29 07:57:38;;;;;;;8.43;6.63;;;24.40;97.50;;;;;;5027291;28;21210;-74
2022/07/29 08:00:04;;;;;;;6.97;6.37;;;24.50;97.40;;;;;;5028166;28;20188;-74
2022/07/29 08:02:30;;;;;;;6.90;6.20;;;24.40;96.90;;;;;;5024602;28;20207;-75
2022/07/29 08:04:55;;;;;;;8.27;6.07;;;24.50;96.40;;;;;;5034871;28;20439;-75
2022/07/29 08:07:21;;;;;;;6.33;5.73;;;24.40;96.00;;;;;;5035209;28;20216;-73
2022/07/29 08:09:47;;;;;;;11.07;5.90;;;24.60;95.90;;;;;;5031268;28;20200;-75
2022/07/29 08:12:12;;;;;;;6.33;5.20;;;24.70;95.40;;;;;;5030502;28;20188;-75
2022/07/29 08:14:38;;;;;;;6.63;5.53;;;24.90;94.90;;;;;;5025918;28;20189;-75
2022/07/29 08:17:03;;;;;;;7.13;5.27;;;24.90;94.10;;;;;;5024322;28;20224;-74
2022/07/29 08:19:29;;;;;;;6.77;5.97;;;25.00;93.80;;;;;;5027330;28;20246;-75
2022/07/29 08:21:55;;;;;;;6.43;5.83;;;24.90;93.40;;;;;;5025603;28;20258;-75
2022/07/29 08:27:06;;;;;;;6.47;5.43;;;24.90;93.40;;;;;;5025945;28;20729;-75
2022/07/29 08:29:32;;;;;;;8.03;5.63;;;24.90;92.60;;;;;;5024563;28;20458;-75
2022/07/29 08:31:57;;;;;;;6.77;5.70;;;24.80;92.30;;;;;;5025069;28;20200;-75
2022/07/29 08:34:23;;;;;;;5.73;5.13;;;24.80;92.00;;;;;;5026963;28;20181;-75
2022/07/29 08:36:49;;;;;;;9.43;5.80;;;24.80;92.00;;;;;;5027632;28;20212;-75
2022/07/29 08:39:14;;;;;;;5.17;4.67;;;24.80;91.80;;;;;;5025743;28;20237;-75
2022/07/29 08:41:40;;;;;;;6.23;5.10;;;24.90;91.70;;;;;;5024472;28;20602;-75
2022/07/29 08:44:06;;;;;;;11.60;5.37;;;24.90;91.40;;;;;;5021288;28;20192;-75
2022/07/29 08:46:31;;;;;;;6.13;5.50;;;25.00;90.80;;;;;;5024615;28;20226;-75
2022/07/29 08:48:57;;;;;;;9.13;5.47;;;25.10;90.20;;;;;;5026320;28;20199;-75
2022/07/29 08:51:25;;;;;;;8.40;5.30;;;25.20;90.00;;;;;;5016482;28;20238;-76
2022/07/29 08:53:50;;;;;;;5.87;4.70;;;25.30;89.90;;;;;;5024775;28;20177;-75
2022/07/29 08:56:18;;;;;;;7.70;4.67;;;25.40;88.90;;;;;;5022659;28;20477;-74
2022/07/29 08:58:45;;;;;;;5.60;5.10;;;25.40;87.80;;;;;;5024993;28;20236;-75
2022/07/29 09:01:15;;;;;;;5.50;5.03;;;25.40;88.00;;;;;;5025357;28;20784;-74
2022/07/29 09:03:43;;;;;;;10.20;5.40;;;25.40;88.40;;;;;;5023643;28;20492;-74
2022/07/29 09:06:09;;;;;;;13.87;6.10;;;25.40;88.70;;;;;;5045946;28;20545;-75
2022/07/29 09:08:34;;;;;;;4.57;4.17;;;25.40;87.60;;;;;;5023277;28;20534;-74
2022/07/29 09:11:03;;;;;;;5.63;4.60;;;25.40;86.20;;;;;;5025306;28;20280;-74
2022/07/29 09:13:28;;;;;;;5.83;5.20;;;25.50;86.20;;;;;;5013192;28;20191;-76
2022/07/29 09:15:54;;;;;;;5.93;4.30;;;25.50;85.40;;;;;;5024926;28;20439;-78
2022/07/29 09:18:38;;;;;;;5.43;4.83;;;25.40;85.40;;;;;;5022785;28;20215;-75
2022/07/29 09:24:04;;;;;;;6.70;4.90;;;25.30;85.70;;;;;;5016371;28;20447;-75
2022/07/29 09:26:31;;;;;;;7.87;4.47;;;25.30;86.30;;;;;;5017906;28;20462;-75
2022/07/29 09:28:57;;;;;;;7.80;5.40;;;25.40;84.60;;;;;;5021642;28;20593;-75
2022/07/29 09:31:34;;;;;;;6.07;4.97;;;25.40;84.70;;;;;;5022733;28;20498;-76
2022/07/29 09:34:00;;;;;;;5.73;4.80;;;25.50;84.50;;;;;;5025824;28;20458;-75
2022/07/29 09:36:26;;;;;;;5.50;5.00;;;25.60;85.10;;;;;;5026483;28;20463;-75
2022/07/29 09:39:02;;;;;;;7.97;5.57;;;25.80;83.50;;;;;;5020118;28;20516;-75
2022/07/29 09:41:29;;;;;;;5.70;5.17;;;25.80;83.60;;;;;;5022850;28;20434;-74
2022/07/29 09:43:59;;;;;;;8.33;5.57;;;25.80;84.90;;;;;;5023885;28;20512;-74
2022/07/29 09:46:25;;;;;;;6.43;5.27;;;25.90;84.20;;;;;;5024747;28;20466;-75
2022/07/29 09:49:07;;;;;;;5.37;4.80;;;25.90;83.90;;;;;;5022764;28;20447;-76
2022/07/29 09:51:33;;;;;;;6.67;5.30;;;25.90;83.80;;;;;;5017678;28;20435;-74
2022/07/29 09:54:00;;;;;;;5.97;4.90;;;26.00;83.60;;;;;;5026777;28;21066;-74
2022/07/29 09:56:42;;;;;;;6.70;5.23;;;26.20;83.60;;;;;;5027566;28;20208;-75
2022/07/29 09:59:08;;;;;;;6.17;5.57;;;26.10;83.70;;;;;;5023985;28;20521;-75
2022/07/29 10:01:35;;;;;;;8.43;5.80;;;26.20;84.00;;;;;;5027821;28;20515;-75
2022/07/29 10:04:01;;;;;;;8.40;4.70;;;26.40;83.40;;;;;;5025504;28;20446;-75
2022/07/29 10:06:27;;;;;;;12.00;4.73;;;26.30;82.60;;;;;;5022933;28;20439;-75
2022/07/29 10:08:53;;;;;;;7.47;5.87;;;26.30;81.70;;;;;;5025333;28;20439;-75
2022/07/29 10:11:19;;;;;;;6.23;5.00;;;26.30;82.10;;;;;;5024324;28;20200;-75
2022/07/29 10:13:48;;;;;;;6.40;5.80;;;26.30;82.30;;;;;;5028048;28;20420;-75
2022/07/29 10:16:15;;;;;;;5.73;5.23;;;26.20;82.00;;;;;;5043846;28;20552;-75
2022/07/29 10:18:43;;;;;;;6.93;5.47;;;26.20;82.90;;;;;;5023747;28;20550;-74
2022/07/29 10:21:09;;;;;;;5.67;5.17;;;26.20;82.80;;;;;;5027733;28;20506;-75
2022/07/29 10:23:36;;;;;;;7.27;4.80;;;26.30;81.90;;;;;;5025924;28;20428;-75
2022/07/29 10:26:03;;;;;;;6.30;5.20;;;26.30;81.60;;;;;;5027424;28;20463;-75
2022/07/29 10:28:31;;;;;;;5.47;4.97;;;26.40;80.20;;;;;;5029350;28;20968;-75
2022/07/29 10:31:04;;;;;;;5.20;4.70;;;26.50;79.70;;;;;;5027902;28;20785;-75
2022/07/29 10:33:54;;;;;;;6.77;4.83;;;26.70;78.60;;;;;;5022509;28;20458;-75
2022/07/29 10:36:23;;;;;;;8.90;4.87;;;26.70;76.20;;;;;;5024741;28;20449;-75
2022/07/29 10:39:13;;;;;;;6.93;4.33;;;26.80;75.60;;;;;;5026017;28;20509;-74
2022/07/29 10:42:10;;;;;;;6.20;4.77;;;26.80;74.50;;;;;;5022603;28;20945;-74
2022/07/29 10:44:40;;;;;;;7.20;4.60;;;26.80;75.70;;;;;;5025293;28;20443;-75
2022/07/29 10:47:06;;;;;;;6.20;4.90;;;26.90;75.90;;;;;;5021738;28;20485;-75
2022/07/29 10:49:32;;;;;;;7.70;5.30;;;27.00;75.30;;;;;;5028018;28;20423;-75
2022/07/29 10:52:00;;;;;;;6.17;5.57;;;27.20;75.50;;;;;;5026502;28;20562;-76
2022/07/29 10:54:35;;;;;;;5.63;4.80;;;27.30;75.30;;;;;;5025112;28;20185;-75
2022/07/29 10:57:16;;;;;;;6.53;4.93;;;27.50;74.00;;;;;;5026202;28;20519;-75
2022/07/29 10:59:46;;;;;;;8.33;4.70;;;27.60;72.20;;;;;;5025137;28;21214;-76
2022/07/29 11:02:44;;;;;;;8.23;4.80;;;27.70;70.50;;;;;;5027631;28;20881;-75
2022/07/29 11:05:19;;;;;;;5.50;4.40;;;27.70;71.30;;;;;;5024923;28;20439;-76
2022/07/29 11:08:23;;;;;;;6.57;4.53;;;27.70;71.40;;;;;;5025457;28;20453;-75
2022/07/29 11:11:31;;;;;;;8.00;4.60;;;27.80;70.90;;;;;;4993775;28;20516;-75
2022/07/29 11:13:57;;;;;;;6.00;5.07;;;27.80;70.90;;;;;;4983935;28;20474;-75
2022/07/29 11:16:23;;;;;;;5.27;4.77;;;28.00;71.10;;;;;;5021407;28;20459;-75
2022/07/29 11:19:14;;;;;;;5.43;4.93;;;28.10;70.20;;;;;;5027013;28;20241;-75
2022/07/29 11:21:49;;;;;;;5.80;4.37;;;28.20;69.10;;;;;;5027198;28;20432;-75
2022/07/29 11:24:23;;;;;;;5.57;4.67;;;28.20;67.80;;;;;;5023755;28;20443;-75
2022/07/29 11:27:07;;;;;;;5.03;4.53;;;28.20;67.60;;;;;;5020840;28;20550;-75
2022/07/29 11:29:37;;;;;;;5.17;4.77;;;28.30;68.10;;;;;;5026203;28;20475;-75
2022/07/29 11:32:14;;;;;;;5.57;4.43;;;28.50;67.90;;;;;;5026064;28;20443;-75
2022/07/29 11:34:40;;;;;;;4.80;4.40;;;28.50;67.40;;;;;;5022509;28;20452;-75
2022/07/29 11:37:09;;;;;;;5.87;4.20;;;28.70;67.70;;;;;;5027523;28;20548;-75
2022/07/29 11:39:35;;;;;;;4.20;3.80;;;28.80;66.70;;;;;;5024153;28;20492;-75
2022/07/29 11:42:16;;;;;;;6.67;4.50;;;29.00;66.00;;;;;;5026540;28;21056;-75
2022/07/29 11:45:01;;;;;;;5.60;5.10;;;29.10;65.80;;;;;;5026995;28;20516;-75
2022/07/29 11:47:29;;;;;;;5.73;4.70;;;29.10;65.50;;;;;;5017854;28;20961;-75
2022/07/29 11:50:00;;;;;;;7.70;4.90;;;29.10;64.80;;;;;;5019746;28;20443;-75
2022/07/29 11:52:42;;;;;;;5.60;4.27;;;29.10;64.30;;;;;;5026697;28;20476;-75
2022/07/29 11:55:10;;;;;;;4.50;4.10;;;29.10;64.70;;;;;;5022204;28;20539;-75
2022/07/29 11:57:36;;;;;;;4.67;4.27;;;29.20;64.30;;;;;;5023026;28;20503;-75
2022/07/29 12:00:06;;;;;;;5.17;4.40;;;29.20;63.80;;;;;;5023607;28;20541;-75
2022/07/29 12:02:43;;;;;;;8.50;4.50;;;29.10;63.30;;;;;;5022367;28;20450;-75
2022/07/29 12:05:10;;;;;;;4.53;4.13;;;29.10;63.00;;;;;;5023081;28;20439;-75
2022/07/29 12:07:38;;;;;;;5.23;3.90;;;29.10;62.70;;;;;;5025187;28;20423;-76
2022/07/29 12:10:05;;;;;;;5.33;4.60;;;29.00;62.40;;;;;;5019090;28;20451;-76
2022/07/29 12:12:30;;;;;;;5.90;4.50;;;29.10;62.30;;;;;;5019387;28;20427;-75
2022/07/29 12:14:56;;;;;;;4.80;4.40;;;28.90;62.10;;;;;;5028421;28;20430;-75
2022/07/29 12:17:30;;;;;;;5.90;3.80;;;28.90;62.60;;;;;;5028501;28;20216;-75
2022/07/29 12:19:58;;;;;;;5.90;4.37;;;29.10;62.10;;;;;;5026687;28;20179;-75
2022/07/29 12:22:33;;;;;;;5.90;4.40;;;29.40;61.30;;;;;;5028992;28;20419;-76
2022/07/29 12:25:15;;;;;;;4.40;4.10;;;29.40;60.80;;;;;;5025487;28;20435;-76
2022/07/29 12:27:42;;;;;;;6.20;4.30;;;29.40;59.70;;;;;;5024714;28;20409;-76
2022/07/29 12:30:10;;;;;;;5.23;4.20;;;29.30;59.60;;;;;;5019402;28;20438;-76
2022/07/29 12:32:41;;;;;;;5.13;4.37;;;29.30;59.50;;;;;;5025526;28;20957;-76
2022/07/29 12:35:15;;;;;;;9.00;4.17;;;29.30;59.00;;;;;;5025496;28;20464;-77
2022/07/29 12:37:42;;;;;;;7.00;4.50;;;29.30;58.80;;;;;;5024180;28;20465;-76
2022/07/29 12:40:11;;;;;;;5.23;4.50;;;29.30;59.30;;;;;;5024175;28;20443;-76
2022/07/29 12:42:37;;;;;;;10.23;4.20;;;29.20;59.70;;;;;;5023316;28;20447;-76
2022/07/29 12:45:03;;;;;;;4.60;4.20;;;29.50;59.00;;;;;;5021114;28;20439;-76
2022/07/29 12:47:29;;;;;;;5.00;4.50;;;29.60;59.40;;;;;;5025204;28;20439;-78
2022/07/29 12:50:14;;;;;;;11.57;4.27;;;29.50;58.60;;;;;;5022873;28;20565;-77
2022/07/29 12:52:41;;;;;;;6.10;4.27;;;29.60;59.80;;;;;;5034911;28;20651;-78
2022/07/29 12:55:07;;;;;;;4.50;4.10;;;29.80;58.50;;;;;;5024611;28;20439;-77
2022/07/29 12:57:48;;;;;;;5.23;4.27;;;29.80;57.60;;;;;;5031411;28;21066;-77
2022/07/29 13:00:14;;;;;;;6.83;4.00;;;29.70;57.60;;;;;;5025458;28;20501;-78
2022/07/29 13:02:42;;;;;;;4.83;4.20;;;29.70;57.90;;;;;;5032895;28;20441;-78